sensor_id;sensor_type;location;lat;lon;timestamp;temperature;humidity
16136;DHT22;8173;48.354;9.248;2023-03-31T00:01:00;6.90;99.90
16136;DHT22;8173;48.354;9.248;2023-03-31T00:03:29;6.80;99.90
16136;DHT22;8173;48.354;9.248;2023-03-31T00:05:59;6.70;99.90
16136;DHT22;8173;48.354;9.248;2023-03-31T00:08:27;6.70;99.90
16136;DHT22;8173;48.354;9.248;2023-03-31T00:10:57;6.70;99.90
16136;DHT22;8173;48.354;9.248;2023-03-31T00:13:25;6.70;99.90
16136;DHT22;8173;48.354;9.248;2023-03-31T00:15:57;6.60;99.90
16136;DHT22;8173;48.354;9.248;2023-03-31T00:18:24;6.50;99.90
16136;DHT22;8173;48.354;9.248;2023-03-31T00:20:51;6.50;99.90
16136;DHT22;8173;48.354;9.248;2023-03-31T00:23:19;6.60;99.90
16136;DHT22;8173;48.354;9.248;2023-03-31T00:25:53;6.60;99.90
16136;DHT22;8173;48.354;9.248;2023-03-31T00:28:20;6.70;99.90
16136;DHT22;8173;48.354;9.248;2023-03-31T00:30:47;6.70;99.90
16136;DHT22;8173;48.354;9.248;2023-03-31T00:33:15;6.80;99.90
16136;DHT22;8173;48.354;9.248;2023-03-31T00:35:42;6.70;99.90
16136;DHT22;8173;48.354;9.248;2023-03-31T00:38:10;6.70;99.90
16136;DHT22;8173;48.354;9.248;2023-03-31T00:40:44;6.70;99.90
16136;DHT22;8173;48.354;9.248;2023-03-31T00:43:27;6.80;99.90
16136;DHT22;8173;48.354;9.248;2023-03-31T00:45:59;6.80;99.90
16136;DHT22;8173;48.354;9.248;2023-03-31T00:48:28;6.80;99.90
16136;DHT22;8173;48.354;9.248;2023-03-31T00:50:56;6.80;99.90
16136;DHT22;8173;48.354;9.248;2023-03-31T00:53:27;6.80;99.90
16136;DHT22;8173;48.354;9.248;2023-03-31T00:55:58;6.80;99.90
16136;DHT22;8173;48.354;9.248;2023-03-31T00:58:26;6.80;99.90
16136;DHT22;8173;48.354;9.248;2023-03-31T01:00:55;6.80;99.90
16136;DHT22;8173;48.354;9.248;2023-03-31T01:03:23;6.90;99.90
16136;DHT22;8173;48.354;9.248;2023-03-31T01:05:54;6.90;99.90
16136;DHT22;8173;48.354;9.248;2023-03-31T01:08:24;6.90;99.90
16136;DHT22;8173;48.354;9.248;2023-03-31T01:10:53;6.90;99.90
16136;DHT22;8173;48.354;9.248;2023-03-31T01:13:21;7.00;99.90
16136;DHT22;8173;48.354;9.248;2023-03-31T01:15:49;7.00;99.90
16136;DHT22;8173;48.354;9.248;2023-03-31T01:18:16;7.10;99.90
16136;DHT22;8173;48.354;9.248;2023-03-31T01:21:01;7.10;99.90
16136;DHT22;8173;48.354;9.248;2023-03-31T01:23:43;7.10;99.90
16136;DHT22;8173;48.354;9.248;2023-03-31T01:26:38;7.10;99.90
16136;DHT22;8173;48.354;9.248;2023-03-31T01:29:19;7.00;99.90
16136;DHT22;8173;48.354;9.248;2023-03-31T01:32:22;7.00;99.90
16136;DHT22;8173;48.354;9.248;2023-03-31T01:38:33;6.90;99.90
16136;DHT22;8173;48.354;9.248;2023-03-31T01:41:19;6.80;99.90
16136;DHT22;8173;48.354;9.248;2023-03-31T01:43:54;6.90;99.90
16136;DHT22;8173;48.354;9.248;2023-03-31T01:46:27;6.90;99.90
16136;DHT22;8173;48.354;9.248;2023-03-31T01:48:59;7.00;99.90
16136;DHT22;8173;48.354;9.248;2023-03-31T01:51:32;7.40;99.90
16136;DHT22;8173;48.354;9.248;2023-03-31T01:54:06;7.60;99.90
16136;DHT22;8173;48.354;9.248;2023-03-31T01:56:39;7.80;99.90
16136;DHT22;8173;48.354;9.248;2023-03-31T01:59:10;8.00;99.90
16136;DHT22;8173;48.354;9.248;2023-03-31T02:01:44;8.00;99.90
16136;DHT22;8173;48.354;9.248;2023-03-31T02:04:16;8.00;99.90
16136;DHT22;8173;48.354;9.248;2023-03-31T02:06:46;8.00;99.90
16136;DHT22;8173;48.354;9.248;2023-03-31T02:09:20;8.00;99.90
16136;DHT22;8173;48.354;9.248;2023-03-31T02:11:49;8.00;99.90
16136;DHT22;8173;48.354;9.248;2023-03-31T02:14:20;8.00;99.90
16136;DHT22;8173;48.354;9.248;2023-03-31T02:16:51;7.90;99.90
16136;DHT22;8173;48.354;9.248;2023-03-31T02:19:24;7.90;99.90
16136;DHT22;8173;48.354;9.248;2023-03-31T02:21:52;7.80;99.90
16136;DHT22;8173;48.354;9.248;2023-03-31T02:24:22;7.70;99.90
16136;DHT22;8173;48.354;9.248;2023-03-31T02:26:54;7.60;99.90
16136;DHT22;8173;48.354;9.248;2023-03-31T02:29:22;7.50;99.90
16136;DHT22;8173;48.354;9.248;2023-03-31T02:31:55;7.50;99.90
16136;DHT22;8173;48.354;9.248;2023-03-31T02:34:23;7.40;99.90
16136;DHT22;8173;48.354;9.248;2023-03-31T02:36:50;7.40;99.90
16136;DHT22;8173;48.354;9.248;2023-03-31T02:39:20;7.40;99.90
16136;DHT22;8173;48.354;9.248;2023-03-31T02:41:50;7.30;99.90
16136;DHT22;8173;48.354;9.248;2023-03-31T02:44:17;7.30;99.90
16136;DHT22;8173;48.354;9.248;2023-03-31T02:46:45;7.20;99.90
16136;DHT22;8173;48.354;9.248;2023-03-31T02:49:12;7.20;99.90
16136;DHT22;8173;48.354;9.248;2023-03-31T02:51:52;7.10;99.90
16136;DHT22;8173;48.354;9.248;2023-03-31T02:57:35;6.90;99.90
16136;DHT22;8173;48.354;9.248;2023-03-31T03:00:08;6.90;99.90
16136;DHT22;8173;48.354;9.248;2023-03-31T03:02:46;6.80;99.90
16136;DHT22;8173;48.354;9.248;2023-03-31T03:05:23;6.80;99.90
16136;DHT22;8173;48.354;9.248;2023-03-31T03:07:57;6.70;99.90
16136;DHT22;8173;48.354;9.248;2023-03-31T03:10:30;6.50;99.90
16136;DHT22;8173;48.354;9.248;2023-03-31T03:13:08;6.40;99.90
16136;DHT22;8173;48.354;9.248;2023-03-31T03:15:38;6.20;99.90
16136;DHT22;8173;48.354;9.248;2023-03-31T03:18:09;6.20;99.90
16136;DHT22;8173;48.354;9.248;2023-03-31T03:20:36;6.10;99.90
16136;DHT22;8173;48.354;9.248;2023-03-31T03:23:03;6.10;99.90
16136;DHT22;8173;48.354;9.248;2023-03-31T03:25:30;6.00;99.90
16136;DHT22;8173;48.354;9.248;2023-03-31T03:27:58;6.00;99.90
16136;DHT22;8173;48.354;9.248;2023-03-31T03:30:26;6.00;99.90
16136;DHT22;8173;48.354;9.248;2023-03-31T03:32:53;5.90;99.90
16136;DHT22;8173;48.354;9.248;2023-03-31T03:35:20;5.90;99.90
16136;DHT22;8173;48.354;9.248;2023-03-31T03:37:47;5.80;99.90
16136;DHT22;8173;48.354;9.248;2023-03-31T03:40:13;5.80;99.90
16136;DHT22;8173;48.354;9.248;2023-03-31T03:42:40;5.70;99.90
16136;DHT22;8173;48.354;9.248;2023-03-31T03:45:08;5.60;99.90
16136;DHT22;8173;48.354;9.248;2023-03-31T03:47:36;5.60;99.90
16136;DHT22;8173;48.354;9.248;2023-03-31T03:50:03;5.60;99.90
16136;DHT22;8173;48.354;9.248;2023-03-31T03:52:30;5.50;99.90
16136;DHT22;8173;48.354;9.248;2023-03-31T03:54:57;5.50;99.90
16136;DHT22;8173;48.354;9.248;2023-03-31T03:57:26;5.50;99.90
16136;DHT22;8173;48.354;9.248;2023-03-31T03:59:52;5.50;99.90
16136;DHT22;8173;48.354;9.248;2023-03-31T04:02:19;5.50;99.90
16136;DHT22;8173;48.354;9.248;2023-03-31T04:04:47;5.60;99.90
16136;DHT22;8173;48.354;9.248;2023-03-31T04:07:14;5.60;99.90
16136;DHT22;8173;48.354;9.248;2023-03-31T04:09:41;5.60;99.90
16136;DHT22;8173;48.354;9.248;2023-03-31T04:12:08;5.60;99.90
16136;DHT22;8173;48.354;9.248;2023-03-31T04:14:35;5.60;99.90
16136;DHT22;8173;48.354;9.248;2023-03-31T04:17:02;5.60;99.90
16136;DHT22;8173;48.354;9.248;2023-03-31T04:19:28;5.60;99.90
16136;DHT22;8173;48.354;9.248;2023-03-31T04:21:56;5.60;99.90
16136;DHT22;8173;48.354;9.248;2023-03-31T04:24:27;5.60;99.90
16136;DHT22;8173;48.354;9.248;2023-03-31T04:26:55;5.60;99.90
16136;DHT22;8173;48.354;9.248;2023-03-31T04:29:22;5.70;99.90
16136;DHT22;8173;48.354;9.248;2023-03-31T04:31:51;5.80;99.90
16136;DHT22;8173;48.354;9.248;2023-03-31T04:34:18;5.80;99.90
16136;DHT22;8173;48.354;9.248;2023-03-31T04:36:46;5.90;99.90
16136;DHT22;8173;48.354;9.248;2023-03-31T04:39:16;5.90;99.90
16136;DHT22;8173;48.354;9.248;2023-03-31T04:41:43;5.80;99.90
16136;DHT22;8173;48.354;9.248;2023-03-31T04:44:10;5.70;99.90
16136;DHT22;8173;48.354;9.248;2023-03-31T04:46:37;5.70;99.90
16136;DHT22;8173;48.354;9.248;2023-03-31T04:49:03;5.80;99.90
16136;DHT22;8173;48.354;9.248;2023-03-31T04:51:30;5.90;99.90
16136;DHT22;8173;48.354;9.248;2023-03-31T04:53:57;6.00;99.90
16136;DHT22;8173;48.354;9.248;2023-03-31T04:56:25;5.90;99.90
16136;DHT22;8173;48.354;9.248;2023-03-31T04:58:52;5.90;99.90
16136;DHT22;8173;48.354;9.248;2023-03-31T05:01:19;5.90;99.90
16136;DHT22;8173;48.354;9.248;2023-03-31T05:03:46;6.00;99.90
16136;DHT22;8173;48.354;9.248;2023-03-31T05:06:13;6.10;99.90
16136;DHT22;8173;48.354;9.248;2023-03-31T05:08:40;6.20;99.90
16136;DHT22;8173;48.354;9.248;2023-03-31T05:11:07;6.20;99.90
16136;DHT22;8173;48.354;9.248;2023-03-31T05:13:35;6.30;99.90
16136;DHT22;8173;48.354;9.248;2023-03-31T05:16:06;6.30;99.90
16136;DHT22;8173;48.354;9.248;2023-03-31T05:18:32;6.30;99.90
16136;DHT22;8173;48.354;9.248;2023-03-31T05:21:11;6.30;99.90
16136;DHT22;8173;48.354;9.248;2023-03-31T05:23:38;6.30;99.90
16136;DHT22;8173;48.354;9.248;2023-03-31T05:26:05;6.30;99.90
16136;DHT22;8173;48.354;9.248;2023-03-31T05:28:32;6.40;99.90
16136;DHT22;8173;48.354;9.248;2023-03-31T05:31:01;6.40;99.90
16136;DHT22;8173;48.354;9.248;2023-03-31T05:33:29;6.40;99.90
16136;DHT22;8173;48.354;9.248;2023-03-31T05:35:55;6.40;99.90
16136;DHT22;8173;48.354;9.248;2023-03-31T05:38:24;6.40;99.90
16136;DHT22;8173;48.354;9.248;2023-03-31T05:40:53;6.40;99.90
16136;DHT22;8173;48.354;9.248;2023-03-31T05:43:20;6.40;99.90
16136;DHT22;8173;48.354;9.248;2023-03-31T05:45:47;6.40;99.90
16136;DHT22;8173;48.354;9.248;2023-03-31T05:48:15;6.40;99.90
16136;DHT22;8173;48.354;9.248;2023-03-31T05:50:42;6.40;99.90
16136;DHT22;8173;48.354;9.248;2023-03-31T05:53:09;6.30;99.90
16136;DHT22;8173;48.354;9.248;2023-03-31T05:55:36;6.30;99.90
16136;DHT22;8173;48.354;9.248;2023-03-31T05:58:03;6.40;99.90
16136;DHT22;8173;48.354;9.248;2023-03-31T06:00:31;6.40;99.90
16136;DHT22;8173;48.354;9.248;2023-03-31T06:02:58;6.30;99.90
16136;DHT22;8173;48.354;9.248;2023-03-31T06:05:26;6.40;99.90
16136;DHT22;8173;48.354;9.248;2023-03-31T06:07:55;6.40;99.90
16136;DHT22;8173;48.354;9.248;2023-03-31T06:10:22;6.50;99.90
16136;DHT22;8173;48.354;9.248;2023-03-31T06:12:49;6.50;99.90
16136;DHT22;8173;48.354;9.248;2023-03-31T06:15:16;6.60;99.90
16136;DHT22;8173;48.354;9.248;2023-03-31T06:17:42;6.50;99.90
16136;DHT22;8173;48.354;9.248;2023-03-31T06:20:10;6.50;99.90
16136;DHT22;8173;48.354;9.248;2023-03-31T06:22:38;6.50;99.90
16136;DHT22;8173;48.354;9.248;2023-03-31T06:25:05;6.50;99.90
16136;DHT22;8173;48.354;9.248;2023-03-31T06:27:32;6.60;99.90
16136;DHT22;8173;48.354;9.248;2023-03-31T06:29:58;6.60;99.90
16136;DHT22;8173;48.354;9.248;2023-03-31T06:32:25;6.60;99.90
16136;DHT22;8173;48.354;9.248;2023-03-31T06:34:52;6.70;99.90
16136;DHT22;8173;48.354;9.248;2023-03-31T06:37:18;6.70;99.90
16136;DHT22;8173;48.354;9.248;2023-03-31T06:39:47;6.80;99.90
16136;DHT22;8173;48.354;9.248;2023-03-31T06:42:15;6.90;99.90
16136;DHT22;8173;48.354;9.248;2023-03-31T06:44:41;6.90;99.90
16136;DHT22;8173;48.354;9.248;2023-03-31T06:47:08;7.00;99.90
16136;DHT22;8173;48.354;9.248;2023-03-31T06:49:35;7.50;99.90
16136;DHT22;8173;48.354;9.248;2023-03-31T06:52:02;7.00;99.90
16136;DHT22;8173;48.354;9.248;2023-03-31T06:54:29;7.10;99.90
16136;DHT22;8173;48.354;9.248;2023-03-31T06:56:57;7.20;99.90
16136;DHT22;8173;48.354;9.248;2023-03-31T06:59:24;7.50;99.90
16136;DHT22;8173;48.354;9.248;2023-03-31T07:01:50;7.50;99.90
16136;DHT22;8173;48.354;9.248;2023-03-31T07:04:17;7.50;99.90
16136;DHT22;8173;48.354;9.248;2023-03-31T07:06:44;7.50;99.90
16136;DHT22;8173;48.354;9.248;2023-03-31T07:09:10;7.40;99.90
16136;DHT22;8173;48.354;9.248;2023-03-31T07:11:37;7.30;99.90
16136;DHT22;8173;48.354;9.248;2023-03-31T07:14:05;7.00;99.90
16136;DHT22;8173;48.354;9.248;2023-03-31T07:16:32;6.80;99.90
16136;DHT22;8173;48.354;9.248;2023-03-31T07:19:00;6.70;99.90
16136;DHT22;8173;48.354;9.248;2023-03-31T07:21:28;6.60;99.90
16136;DHT22;8173;48.354;9.248;2023-03-31T07:23:56;6.60;99.90
16136;DHT22;8173;48.354;9.248;2023-03-31T07:26:22;6.60;99.90
16136;DHT22;8173;48.354;9.248;2023-03-31T07:28:51;6.50;99.90
16136;DHT22;8173;48.354;9.248;2023-03-31T07:31:22;6.50;99.90
16136;DHT22;8173;48.354;9.248;2023-03-31T07:33:49;6.50;99.90
16136;DHT22;8173;48.354;9.248;2023-03-31T07:36:16;6.60;99.90
16136;DHT22;8173;48.354;9.248;2023-03-31T07:38:44;6.80;99.90
16136;DHT22;8173;48.354;9.248;2023-03-31T07:41:14;7.10;99.90
16136;DHT22;8173;48.354;9.248;2023-03-31T07:43:41;7.20;99.90
16136;DHT22;8173;48.354;9.248;2023-03-31T07:46:17;7.30;99.90
16136;DHT22;8173;48.354;9.248;2023-03-31T07:48:46;7.30;99.90
16136;DHT22;8173;48.354;9.248;2023-03-31T07:51:14;7.30;99.90
16136;DHT22;8173;48.354;9.248;2023-03-31T07:53:41;7.40;99.90
16136;DHT22;8173;48.354;9.248;2023-03-31T07:56:08;7.50;99.90
16136;DHT22;8173;48.354;9.248;2023-03-31T07:58:35;7.90;99.90
16136;DHT22;8173;48.354;9.248;2023-03-31T08:01:01;8.30;99.90
16136;DHT22;8173;48.354;9.248;2023-03-31T08:03:28;9.30;99.90
16136;DHT22;8173;48.354;9.248;2023-03-31T08:05:57;10.60;99.90
16136;DHT22;8173;48.354;9.248;2023-03-31T08:08:24;11.60;99.90
16136;DHT22;8173;48.354;9.248;2023-03-31T08:10:51;12.00;99.90
16136;DHT22;8173;48.354;9.248;2023-03-31T08:13:18;12.60;99.90
16136;DHT22;8173;48.354;9.248;2023-03-31T08:15:45;13.50;99.90
16136;DHT22;8173;48.354;9.248;2023-03-31T08:18:12;13.60;99.90
16136;DHT22;8173;48.354;9.248;2023-03-31T08:20:38;13.60;99.90
16136;DHT22;8173;48.354;9.248;2023-03-31T08:23:07;14.00;99.90
16136;DHT22;8173;48.354;9.248;2023-03-31T08:25:35;13.60;99.90
16136;DHT22;8173;48.354;9.248;2023-03-31T08:28:02;13.60;99.90
16136;DHT22;8173;48.354;9.248;2023-03-31T08:30:31;13.80;99.90
16136;DHT22;8173;48.354;9.248;2023-03-31T08:32:58;13.90;99.90
16136;DHT22;8173;48.354;9.248;2023-03-31T08:35:24;14.00;99.90
16136;DHT22;8173;48.354;9.248;2023-03-31T08:37:51;14.40;99.90
16136;DHT22;8173;48.354;9.248;2023-03-31T08:40:22;14.50;99.90
16136;DHT22;8173;48.354;9.248;2023-03-31T08:42:51;14.40;99.90
16136;DHT22;8173;48.354;9.248;2023-03-31T08:45:21;14.30;99.90
16136;DHT22;8173;48.354;9.248;2023-03-31T08:47:52;14.00;99.90
16136;DHT22;8173;48.354;9.248;2023-03-31T08:50:23;14.20;99.90
16136;DHT22;8173;48.354;9.248;2023-03-31T08:52:56;14.40;99.90
16136;DHT22;8173;48.354;9.248;2023-03-31T08:55:29;14.20;99.90
16136;DHT22;8173;48.354;9.248;2023-03-31T08:58:00;14.40;99.90
16136;DHT22;8173;48.354;9.248;2023-03-31T09:00:34;14.80;99.90
16136;DHT22;8173;48.354;9.248;2023-03-31T09:03:12;14.80;99.90
16136;DHT22;8173;48.354;9.248;2023-03-31T09:05:47;13.90;99.90
16136;DHT22;8173;48.354;9.248;2023-03-31T09:08:33;13.90;99.90
16136;DHT22;8173;48.354;9.248;2023-03-31T09:11:08;14.10;99.90
16136;DHT22;8173;48.354;9.248;2023-03-31T09:14:08;13.50;99.90
16136;DHT22;8173;48.354;9.248;2023-03-31T09:16:40;13.00;99.90
16136;DHT22;8173;48.354;9.248;2023-03-31T09:19:13;14.10;99.90
16136;DHT22;8173;48.354;9.248;2023-03-31T09:21:43;14.20;99.90
16136;DHT22;8173;48.354;9.248;2023-03-31T09:24:14;14.10;99.90
16136;DHT22;8173;48.354;9.248;2023-03-31T09:26:47;14.20;99.90
16136;DHT22;8173;48.354;9.248;2023-03-31T09:29:21;13.50;99.90
16136;DHT22;8173;48.354;9.248;2023-03-31T09:31:49;12.90;99.90
16136;DHT22;8173;48.354;9.248;2023-03-31T09:34:20;13.40;99.90
16136;DHT22;8173;48.354;9.248;2023-03-31T09:36:49;14.00;99.90
16136;DHT22;8173;48.354;9.248;2023-03-31T09:39:16;14.60;99.90
16136;DHT22;8173;48.354;9.248;2023-03-31T09:41:46;15.00;99.90
16136;DHT22;8173;48.354;9.248;2023-03-31T09:44:26;15.30;99.90
16136;DHT22;8173;48.354;9.248;2023-03-31T09:46:54;14.60;99.90
16136;DHT22;8173;48.354;9.248;2023-03-31T09:49:25;14.80;99.90
16136;DHT22;8173;48.354;9.248;2023-03-31T09:52:00;14.20;99.90
16136;DHT22;8173;48.354;9.248;2023-03-31T09:54:35;13.60;99.90
16136;DHT22;8173;48.354;9.248;2023-03-31T09:57:13;13.10;99.90
16136;DHT22;8173;48.354;9.248;2023-03-31T09:59:40;12.30;99.90
16136;DHT22;8173;48.354;9.248;2023-03-31T10:02:28;12.20;99.90
16136;DHT22;8173;48.354;9.248;2023-03-31T10:04:59;11.90;99.90
16136;DHT22;8173;48.354;9.248;2023-03-31T10:07:26;12.40;99.90
16136;DHT22;8173;48.354;9.248;2023-03-31T10:09:54;13.30;99.90
16136;DHT22;8173;48.354;9.248;2023-03-31T10:12:24;14.20;99.90
16136;DHT22;8173;48.354;9.248;2023-03-31T10:14:54;14.80;99.90
16136;DHT22;8173;48.354;9.248;2023-03-31T10:17:27;14.70;99.90
16136;DHT22;8173;48.354;9.248;2023-03-31T10:19:57;14.80;99.90
16136;DHT22;8173;48.354;9.248;2023-03-31T10:22:29;14.30;99.90
16136;DHT22;8173;48.354;9.248;2023-03-31T10:25:09;14.20;99.90
16136;DHT22;8173;48.354;9.248;2023-03-31T10:27:39;14.30;99.90
16136;DHT22;8173;48.354;9.248;2023-03-31T10:30:10;14.20;99.90
16136;DHT22;8173;48.354;9.248;2023-03-31T10:32:39;14.10;99.90
16136;DHT22;8173;48.354;9.248;2023-03-31T10:35:15;14.00;99.90
16136;DHT22;8173;48.354;9.248;2023-03-31T10:37:47;14.30;99.90
16136;DHT22;8173;48.354;9.248;2023-03-31T10:40:18;14.50;99.90
16136;DHT22;8173;48.354;9.248;2023-03-31T10:42:57;14.80;99.90
16136;DHT22;8173;48.354;9.248;2023-03-31T10:45:26;15.00;99.90
16136;DHT22;8173;48.354;9.248;2023-03-31T10:47:54;14.30;99.90
16136;DHT22;8173;48.354;9.248;2023-03-31T10:50:26;13.50;99.90
16136;DHT22;8173;48.354;9.248;2023-03-31T10:53:01;13.70;99.90
16136;DHT22;8173;48.354;9.248;2023-03-31T10:55:33;14.40;99.90
16136;DHT22;8173;48.354;9.248;2023-03-31T10:58:08;14.20;99.90
16136;DHT22;8173;48.354;9.248;2023-03-31T11:00:44;13.90;99.90
16136;DHT22;8173;48.354;9.248;2023-03-31T11:06:13;15.30;99.90
16136;DHT22;8173;48.354;9.248;2023-03-31T11:08:48;14.60;99.90
16136;DHT22;8173;48.354;9.248;2023-03-31T11:11:45;14.70;99.90
16136;DHT22;8173;48.354;9.248;2023-03-31T11:14:18;14.50;99.90
16136;DHT22;8173;48.354;9.248;2023-03-31T11:16:51;14.40;99.90
16136;DHT22;8173;48.354;9.248;2023-03-31T11:19:33;14.50;99.90
16136;DHT22;8173;48.354;9.248;2023-03-31T11:22:08;14.40;99.90
16136;DHT22;8173;48.354;9.248;2023-03-31T11:24:52;14.10;99.90
16136;DHT22;8173;48.354;9.248;2023-03-31T11:27:34;14.20;99.90
16136;DHT22;8173;48.354;9.248;2023-03-31T11:30:07;14.50;99.90
16136;DHT22;8173;48.354;9.248;2023-03-31T11:32:55;13.30;99.90
16136;DHT22;8173;48.354;9.248;2023-03-31T11:35:42;11.80;99.90
16136;DHT22;8173;48.354;9.248;2023-03-31T11:38:25;11.00;99.90
16136;DHT22;8173;48.354;9.248;2023-03-31T11:40:59;9.90;99.90
16136;DHT22;8173;48.354;9.248;2023-03-31T11:43:32;8.90;99.90
16136;DHT22;8173;48.354;9.248;2023-03-31T11:46:03;8.90;99.90
16136;DHT22;8173;48.354;9.248;2023-03-31T11:48:37;8.60;99.90
16136;DHT22;8173;48.354;9.248;2023-03-31T11:51:10;8.40;99.90
16136;DHT22;8173;48.354;9.248;2023-03-31T11:53:39;8.30;99.90
16136;DHT22;8173;48.354;9.248;2023-03-31T11:56:09;8.70;99.90
16136;DHT22;8173;48.354;9.248;2023-03-31T11:58:40;9.20;99.90
16136;DHT22;8173;48.354;9.248;2023-03-31T12:01:16;9.70;99.90
16136;DHT22;8173;48.354;9.248;2023-03-31T12:03:50;9.80;99.90
16136;DHT22;8173;48.354;9.248;2023-03-31T12:06:20;10.00;99.90
16136;DHT22;8173;48.354;9.248;2023-03-31T12:09:00;10.10;99.90
16136;DHT22;8173;48.354;9.248;2023-03-31T12:11:33;10.50;99.90
16136;DHT22;8173;48.354;9.248;2023-03-31T12:14:11;10.80;99.90
16136;DHT22;8173;48.354;9.248;2023-03-31T12:16:44;10.30;99.90
16136;DHT22;8173;48.354;9.248;2023-03-31T12:19:15;10.00;99.90
16136;DHT22;8173;48.354;9.248;2023-03-31T12:21:49;10.50;99.90
16136;DHT22;8173;48.354;9.248;2023-03-31T12:24:17;11.00;99.90
16136;DHT22;8173;48.354;9.248;2023-03-31T12:26:50;11.50;99.90
16136;DHT22;8173;48.354;9.248;2023-03-31T12:29:26;10.80;99.90
16136;DHT22;8173;48.354;9.248;2023-03-31T12:31:56;10.50;99.90
16136;DHT22;8173;48.354;9.248;2023-03-31T12:34:25;11.20;99.90
16136;DHT22;8173;48.354;9.248;2023-03-31T12:37:12;11.60;99.90
16136;DHT22;8173;48.354;9.248;2023-03-31T12:39:54;12.00;99.90
16136;DHT22;8173;48.354;9.248;2023-03-31T12:42:48;12.10;99.90
16136;DHT22;8173;48.354;9.248;2023-03-31T12:45:25;12.50;99.90
16136;DHT22;8173;48.354;9.248;2023-03-31T12:48:11;11.90;99.90
16136;DHT22;8173;48.354;9.248;2023-03-31T12:50:54;12.40;99.90
16136;DHT22;8173;48.354;9.248;2023-03-31T12:53:28;12.60;99.90
16136;DHT22;8173;48.354;9.248;2023-03-31T12:55:58;12.00;99.90
16136;DHT22;8173;48.354;9.248;2023-03-31T12:58:39;12.10;99.90
16136;DHT22;8173;48.354;9.248;2023-03-31T13:01:08;12.30;99.90
16136;DHT22;8173;48.354;9.248;2023-03-31T13:03:43;11.30;99.90
16136;DHT22;8173;48.354;9.248;2023-03-31T13:06:52;11.10;99.90
16136;DHT22;8173;48.354;9.248;2023-03-31T13:09:47;10.70;99.90
16136;DHT22;8173;48.354;9.248;2023-03-31T13:12:19;10.50;99.90
16136;DHT22;8173;48.354;9.248;2023-03-31T13:14:48;10.30;99.90
16136;DHT22;8173;48.354;9.248;2023-03-31T13:17:26;10.50;99.90
16136;DHT22;8173;48.354;9.248;2023-03-31T13:19:55;10.50;99.90
16136;DHT22;8173;48.354;9.248;2023-03-31T13:22:35;10.90;99.90
16136;DHT22;8173;48.354;9.248;2023-03-31T13:25:38;11.20;99.90
16136;DHT22;8173;48.354;9.248;2023-03-31T13:28:13;11.70;99.90
16136;DHT22;8173;48.354;9.248;2023-03-31T13:31:01;12.50;99.90
16136;DHT22;8173;48.354;9.248;2023-03-31T13:33:48;12.80;99.90
16136;DHT22;8173;48.354;9.248;2023-03-31T13:36:37;13.00;99.90
16136;DHT22;8173;48.354;9.248;2023-03-31T13:42:05;12.50;99.90
16136;DHT22;8173;48.354;9.248;2023-03-31T13:44:51;12.00;99.90
16136;DHT22;8173;48.354;9.248;2023-03-31T13:47:48;11.90;99.90
16136;DHT22;8173;48.354;9.248;2023-03-31T13:50:38;11.60;99.90
16136;DHT22;8173;48.354;9.248;2023-03-31T13:53:23;11.50;99.90
16136;DHT22;8173;48.354;9.248;2023-03-31T13:56:08;11.40;99.90
16136;DHT22;8173;48.354;9.248;2023-03-31T14:04:41;9.60;99.90
16136;DHT22;8173;48.354;9.248;2023-03-31T14:07:15;8.70;99.90
16136;DHT22;8173;48.354;9.248;2023-03-31T14:09:44;8.40;99.90
16136;DHT22;8173;48.354;9.248;2023-03-31T14:12:29;8.50;99.90
16136;DHT22;8173;48.354;9.248;2023-03-31T14:14:56;8.60;99.90
16136;DHT22;8173;48.354;9.248;2023-03-31T14:17:26;8.50;99.90
16136;DHT22;8173;48.354;9.248;2023-03-31T14:20:19;8.40;99.90
16136;DHT22;8173;48.354;9.248;2023-03-31T14:22:54;8.40;99.90
16136;DHT22;8173;48.354;9.248;2023-03-31T14:25:34;8.20;99.90
16136;DHT22;8173;48.354;9.248;2023-03-31T14:28:13;8.10;99.90
16136;DHT22;8173;48.354;9.248;2023-03-31T14:30:51;8.00;99.90
16136;DHT22;8173;48.354;9.248;2023-03-31T14:33:31;7.90;99.90
16136;DHT22;8173;48.354;9.248;2023-03-31T14:36:08;8.00;99.90
16136;DHT22;8173;48.354;9.248;2023-03-31T14:38:40;8.00;99.90
16136;DHT22;8173;48.354;9.248;2023-03-31T14:41:16;8.10;99.90
16136;DHT22;8173;48.354;9.248;2023-03-31T14:43:48;8.10;99.90
16136;DHT22;8173;48.354;9.248;2023-03-31T14:46:19;8.10;99.90
16136;DHT22;8173;48.354;9.248;2023-03-31T14:48:47;8.00;99.90
16136;DHT22;8173;48.354;9.248;2023-03-31T14:51:17;7.80;99.90
16136;DHT22;8173;48.354;9.248;2023-03-31T14:53:44;7.70;99.90
16136;DHT22;8173;48.354;9.248;2023-03-31T14:56:12;7.40;99.90
16136;DHT22;8173;48.354;9.248;2023-03-31T14:58:43;7.30;99.90
16136;DHT22;8173;48.354;9.248;2023-03-31T15:01:16;7.40;99.90
16136;DHT22;8173;48.354;9.248;2023-03-31T15:03:44;7.50;99.90
16136;DHT22;8173;48.354;9.248;2023-03-31T15:06:12;7.60;99.90
16136;DHT22;8173;48.354;9.248;2023-03-31T15:08:39;7.80;99.90
16136;DHT22;8173;48.354;9.248;2023-03-31T15:11:08;8.00;99.90
16136;DHT22;8173;48.354;9.248;2023-03-31T15:13:39;8.00;99.90
16136;DHT22;8173;48.354;9.248;2023-03-31T15:16:28;8.00;99.90
16136;DHT22;8173;48.354;9.248;2023-03-31T15:18:57;7.90;99.90
16136;DHT22;8173;48.354;9.248;2023-03-31T15:21:26;7.70;99.90
16136;DHT22;8173;48.354;9.248;2023-03-31T15:23:54;7.80;99.90
16136;DHT22;8173;48.354;9.248;2023-03-31T15:26:24;7.90;99.90
16136;DHT22;8173;48.354;9.248;2023-03-31T15:28:53;8.00;99.90
16136;DHT22;8173;48.354;9.248;2023-03-31T15:31:24;8.20;99.90
16136;DHT22;8173;48.354;9.248;2023-03-31T15:33:52;8.30;99.90
16136;DHT22;8173;48.354;9.248;2023-03-31T15:36:19;8.50;99.90
16136;DHT22;8173;48.354;9.248;2023-03-31T15:38:54;8.70;99.90
16136;DHT22;8173;48.354;9.248;2023-03-31T15:41:21;8.80;99.90
16136;DHT22;8173;48.354;9.248;2023-03-31T15:43:49;8.70;99.90
16136;DHT22;8173;48.354;9.248;2023-03-31T15:46:48;8.70;99.90
16136;DHT22;8173;48.354;9.248;2023-03-31T15:49:19;8.50;99.90
16136;DHT22;8173;48.354;9.248;2023-03-31T15:51:47;8.40;99.90
16136;DHT22;8173;48.354;9.248;2023-03-31T15:54:28;8.30;99.90
16136;DHT22;8173;48.354;9.248;2023-03-31T15:56:59;8.20;99.90
16136;DHT22;8173;48.354;9.248;2023-03-31T15:59:27;8.00;99.90
16136;DHT22;8173;48.354;9.248;2023-03-31T16:01:57;8.00;99.90
16136;DHT22;8173;48.354;9.248;2023-03-31T16:04:29;7.90;99.90
16136;DHT22;8173;48.354;9.248;2023-03-31T16:07:00;7.70;99.90
16136;DHT22;8173;48.354;9.248;2023-03-31T16:09:38;7.70;99.90
16136;DHT22;8173;48.354;9.248;2023-03-31T16:12:14;7.70;99.90
16136;DHT22;8173;48.354;9.248;2023-03-31T16:14:46;7.70;99.90
16136;DHT22;8173;48.354;9.248;2023-03-31T16:17:25;7.70;99.90
16136;DHT22;8173;48.354;9.248;2023-03-31T16:19:56;7.70;99.90
16136;DHT22;8173;48.354;9.248;2023-03-31T16:22:28;7.80;99.90
16136;DHT22;8173;48.354;9.248;2023-03-31T16:24:56;7.80;99.90
16136;DHT22;8173;48.354;9.248;2023-03-31T16:27:22;7.80;99.90
16136;DHT22;8173;48.354;9.248;2023-03-31T16:29:49;8.00;99.90
16136;DHT22;8173;48.354;9.248;2023-03-31T16:32:18;7.80;99.90
16136;DHT22;8173;48.354;9.248;2023-03-31T16:34:54;7.90;99.90
16136;DHT22;8173;48.354;9.248;2023-03-31T16:37:21;7.90;99.90
16136;DHT22;8173;48.354;9.248;2023-03-31T16:39:48;7.90;99.90
16136;DHT22;8173;48.354;9.248;2023-03-31T16:42:15;7.90;99.90
16136;DHT22;8173;48.354;9.248;2023-03-31T16:44:42;7.90;99.90